sensor_id;sensor_type;location;lat;lon;timestamp;temperature;humidity
19363;DHT22;9817;50.80926400;5.16316200;2023-03-03T00:00:51;3.50;99.90
19363;DHT22;9817;50.80926400;5.16316200;2023-03-03T00:03:20;3.40;99.90
19363;DHT22;9817;50.80926400;5.16316200;2023-03-03T00:05:46;3.30;99.90
19363;DHT22;9817;50.80926400;5.16316200;2023-03-03T00:08:12;3.30;99.90
19363;DHT22;9817;50.80926400;5.16316200;2023-03-03T00:10:38;3.30;99.90
19363;DHT22;9817;50.80926400;5.16316200;2023-03-03T00:13:12;3.40;99.90
19363;DHT22;9817;50.80926400;5.16316200;2023-03-03T00:15:38;3.40;99.90
19363;DHT22;9817;50.80926400;5.16316200;2023-03-03T00:18:16;3.40;99.90
19363;DHT22;9817;50.80926400;5.16316200;2023-03-03T00:20:48;3.40;99.90
19363;DHT22;9817;50.80926400;5.16316200;2023-03-03T00:23:25;3.40;99.90
19363;DHT22;9817;50.80926400;5.16316200;2023-03-03T00:25:53;3.30;99.90
19363;DHT22;9817;50.80926400;5.16316200;2023-03-03T00:28:28;3.30;99.90
19363;DHT22;9817;50.80926400;5.16316200;2023-03-03T00:30:59;3.20;99.90
19363;DHT22;9817;50.80926400;5.16316200;2023-03-03T00:33:30;3.30;99.90
19363;DHT22;9817;50.80926400;5.16316200;2023-03-03T00:38:40;3.10;99.90
19363;DHT22;9817;50.80926400;5.16316200;2023-03-03T00:41:36;3.00;99.90
19363;DHT22;9817;50.80926400;5.16316200;2023-03-03T00:46:50;2.90;99.90
19363;DHT22;9817;50.80926400;5.16316200;2023-03-03T00:49:23;2.80;99.90
19363;DHT22;9817;50.80926400;5.16316200;2023-03-03T00:51:51;2.90;99.90
19363;DHT22;9817;50.80926400;5.16316200;2023-03-03T00:54:17;2.80;99.90
19363;DHT22;9817;50.80926400;5.16316200;2023-03-03T00:56:43;2.80;99.90
19363;DHT22;9817;50.80926400;5.16316200;2023-03-03T00:59:09;2.80;99.90
19363;DHT22;9817;50.80926400;5.16316200;2023-03-03T01:01:34;2.90;99.90
19363;DHT22;9817;50.80926400;5.16316200;2023-03-03T01:04:00;2.80;99.90
19363;DHT22;9817;50.80926400;5.16316200;2023-03-03T01:06:25;2.70;99.90
19363;DHT22;9817;50.80926400;5.16316200;2023-03-03T01:08:51;2.70;99.90
19363;DHT22;9817;50.80926400;5.16316200;2023-03-03T01:11:23;2.60;99.90
19363;DHT22;9817;50.80926400;5.16316200;2023-03-03T01:13:50;2.70;99.90
19363;DHT22;9817;50.80926400;5.16316200;2023-03-03T01:16:17;2.70;99.90
19363;DHT22;9817;50.80926400;5.16316200;2023-03-03T01:18:43;2.70;99.90
19363;DHT22;9817;50.80926400;5.16316200;2023-03-03T01:21:10;2.70;99.90
19363;DHT22;9817;50.80926400;5.16316200;2023-03-03T01:23:36;2.70;99.90
19363;DHT22;9817;50.80926400;5.16316200;2023-03-03T01:26:03;2.70;99.90
19363;DHT22;9817;50.80926400;5.16316200;2023-03-03T01:28:28;2.60;99.90
19363;DHT22;9817;50.80926400;5.16316200;2023-03-03T01:30:59;2.60;99.90
19363;DHT22;9817;50.80926400;5.16316200;2023-03-03T01:33:25;2.60;99.90
19363;DHT22;9817;50.80926400;5.16316200;2023-03-03T01:35:51;2.60;99.90
19363;DHT22;9817;50.80926400;5.16316200;2023-03-03T01:38:16;2.70;99.90
19363;DHT22;9817;50.80926400;5.16316200;2023-03-03T01:40:42;2.70;99.90
19363;DHT22;9817;50.80926400;5.16316200;2023-03-03T01:43:13;2.90;99.90
19363;DHT22;9817;50.80926400;5.16316200;2023-03-03T01:48:27;3.00;99.90
19363;DHT22;9817;50.80926400;5.16316200;2023-03-03T01:50:58;3.00;99.90
19363;DHT22;9817;50.80926400;5.16316200;2023-03-03T01:53:36;3.00;99.90
19363;DHT22;9817;50.80926400;5.16316200;2023-03-03T01:56:05;3.00;99.90
19363;DHT22;9817;50.80926400;5.16316200;2023-03-03T01:58:35;3.10;99.90
19363;DHT22;9817;50.80926400;5.16316200;2023-03-03T02:01:06;3.00;99.90
19363;DHT22;9817;50.80926400;5.16316200;2023-03-03T02:03:33;2.90;99.90
19363;DHT22;9817;50.80926400;5.16316200;2023-03-03T02:06:05;2.70;99.90
19363;DHT22;9817;50.80926400;5.16316200;2023-03-03T02:08:44;2.60;99.90
19363;DHT22;9817;50.80926400;5.16316200;2023-03-03T02:11:12;2.70;99.90
19363;DHT22;9817;50.80926400;5.16316200;2023-03-03T02:13:39;2.80;99.90
19363;DHT22;9817;50.80926400;5.16316200;2023-03-03T02:16:05;3.00;99.90
19363;DHT22;9817;50.80926400;5.16316200;2023-03-03T02:18:31;3.10;99.90
19363;DHT22;9817;50.80926400;5.16316200;2023-03-03T02:24:06;3.00;99.90
19363;DHT22;9817;50.80926400;5.16316200;2023-03-03T02:26:36;3.00;99.90
19363;DHT22;9817;50.80926400;5.16316200;2023-03-03T02:29:04;3.10;99.90
19363;DHT22;9817;50.80926400;5.16316200;2023-03-03T02:31:31;3.00;99.90
19363;DHT22;9817;50.80926400;5.16316200;2023-03-03T02:33:57;3.00;99.90
19363;DHT22;9817;50.80926400;5.16316200;2023-03-03T02:36:28;2.90;99.90
19363;DHT22;9817;50.80926400;5.16316200;2023-03-03T02:39:07;2.90;99.90
19363;DHT22;9817;50.80926400;5.16316200;2023-03-03T02:44:27;2.70;99.90
19363;DHT22;9817;50.80926400;5.16316200;2023-03-03T02:46:54;2.70;99.90
19363;DHT22;9817;50.80926400;5.16316200;2023-03-03T02:49:22;2.80;99.90
19363;DHT22;9817;50.80926400;5.16316200;2023-03-03T02:51:49;2.70;99.90
19363;DHT22;9817;50.80926400;5.16316200;2023-03-03T02:54:17;2.70;99.90
19363;DHT22;9817;50.80926400;5.16316200;2023-03-03T02:56:43;2.70;99.90
19363;DHT22;9817;50.80926400;5.16316200;2023-03-03T02:59:09;2.80;99.90
19363;DHT22;9817;50.80926400;5.16316200;2023-03-03T03:01:35;2.80;99.90
19363;DHT22;9817;50.80926400;5.16316200;2023-03-03T03:04:06;2.80;99.90
19363;DHT22;9817;50.80926400;5.16316200;2023-03-03T03:06:32;2.60;99.90
19363;DHT22;9817;50.80926400;5.16316200;2023-03-03T03:08:58;2.70;99.90
19363;DHT22;9817;50.80926400;5.16316200;2023-03-03T03:11:24;2.60;99.90
19363;DHT22;9817;50.80926400;5.16316200;2023-03-03T03:13:50;2.60;99.90
19363;DHT22;9817;50.80926400;5.16316200;2023-03-03T03:16:16;2.80;99.90
19363;DHT22;9817;50.80926400;5.16316200;2023-03-03T03:18:42;2.90;99.90
19363;DHT22;9817;50.80926400;5.16316200;2023-03-03T03:21:11;3.10;99.90
19363;DHT22;9817;50.80926400;5.16316200;2023-03-03T03:23:37;2.90;99.90
19363;DHT22;9817;50.80926400;5.16316200;2023-03-03T03:26:03;2.60;99.90
19363;DHT22;9817;50.80926400;5.16316200;2023-03-03T03:28:29;2.50;99.90
19363;DHT22;9817;50.80926400;5.16316200;2023-03-03T03:30:55;2.50;99.90
19363;DHT22;9817;50.80926400;5.16316200;2023-03-03T03:33:21;2.50;99.90
19363;DHT22;9817;50.80926400;5.16316200;2023-03-03T03:35:46;2.50;99.90
19363;DHT22;9817;50.80926400;5.16316200;2023-03-03T03:38:13;2.60;99.90
19363;DHT22;9817;50.80926400;5.16316200;2023-03-03T03:40:39;2.30;99.90
19363;DHT22;9817;50.80926400;5.16316200;2023-03-03T03:43:05;2.40;99.90
19363;DHT22;9817;50.80926400;5.16316200;2023-03-03T03:45:30;2.40;99.90
19363;DHT22;9817;50.80926400;5.16316200;2023-03-03T03:47:56;2.30;99.90
19363;DHT22;9817;50.80926400;5.16316200;2023-03-03T03:50:22;2.30;99.90
19363;DHT22;9817;50.80926400;5.16316200;2023-03-03T03:52:48;2.40;99.90
19363;DHT22;9817;50.80926400;5.16316200;2023-03-03T03:55:13;2.50;99.90
19363;DHT22;9817;50.80926400;5.16316200;2023-03-03T03:57:40;2.50;99.90
19363;DHT22;9817;50.80926400;5.16316200;2023-03-03T04:00:07;2.40;99.90
19363;DHT22;9817;50.80926400;5.16316200;2023-03-03T04:02:33;2.40;99.90
19363;DHT22;9817;50.80926400;5.16316200;2023-03-03T04:04:59;2.30;99.90
19363;DHT22;9817;50.80926400;5.16316200;2023-03-03T04:07:25;2.20;99.90
19363;DHT22;9817;50.80926400;5.16316200;2023-03-03T04:09:50;2.20;99.90
19363;DHT22;9817;50.80926400;5.16316200;2023-03-03T04:12:16;2.20;99.90
19363;DHT22;9817;50.80926400;5.16316200;2023-03-03T04:14:42;2.20;99.90
19363;DHT22;9817;50.80926400;5.16316200;2023-03-03T04:17:09;2.30;99.90
19363;DHT22;9817;50.80926400;5.16316200;2023-03-03T04:19:35;2.30;99.90
19363;DHT22;9817;50.80926400;5.16316200;2023-03-03T04:22:00;2.30;99.90
19363;DHT22;9817;50.80926400;5.16316200;2023-03-03T04:24:26;2.10;99.90
19363;DHT22;9817;50.80926400;5.16316200;2023-03-03T04:26:51;2.00;99.90
19363;DHT22;9817;50.80926400;5.16316200;2023-03-03T04:29:17;2.10;99.90
19363;DHT22;9817;50.80926400;5.16316200;2023-03-03T04:31:43;2.20;99.90
19363;DHT22;9817;50.80926400;5.16316200;2023-03-03T04:34:08;2.20;99.90
19363;DHT22;9817;50.80926400;5.16316200;2023-03-03T04:36:34;2.30;99.90
19363;DHT22;9817;50.80926400;5.16316200;2023-03-03T04:38:59;2.30;99.90
19363;DHT22;9817;50.80926400;5.16316200;2023-03-03T04:41:25;2.20;99.90
19363;DHT22;9817;50.80926400;5.16316200;2023-03-03T04:43:50;2.10;99.90
19363;DHT22;9817;50.80926400;5.16316200;2023-03-03T04:46:16;2.00;99.90
19363;DHT22;9817;50.80926400;5.16316200;2023-03-03T04:48:41;2.00;99.90
19363;DHT22;9817;50.80926400;5.16316200;2023-03-03T04:51:07;2.00;99.90
19363;DHT22;9817;50.80926400;5.16316200;2023-03-03T04:53:33;1.90;99.90
19363;DHT22;9817;50.80926400;5.16316200;2023-03-03T04:55:58;1.90;99.90
19363;DHT22;9817;50.80926400;5.16316200;2023-03-03T04:58:24;1.90;99.90
19363;DHT22;9817;50.80926400;5.16316200;2023-03-03T05:00:54;1.90;99.90
19363;DHT22;9817;50.80926400;5.16316200;2023-03-03T05:03:21;2.00;99.90
19363;DHT22;9817;50.80926400;5.16316200;2023-03-03T05:05:47;1.90;99.90
19363;DHT22;9817;50.80926400;5.16316200;2023-03-03T05:08:13;1.90;99.90
19363;DHT22;9817;50.80926400;5.16316200;2023-03-03T05:10:39;1.90;99.90
19363;DHT22;9817;50.80926400;5.16316200;2023-03-03T05:13:05;2.00;99.90
19363;DHT22;9817;50.80926400;5.16316200;2023-03-03T05:15:31;1.90;99.90
19363;DHT22;9817;50.80926400;5.16316200;2023-03-03T05:17:57;1.80;99.90
19363;DHT22;9817;50.80926400;5.16316200;2023-03-03T05:20:23;1.80;99.90
19363;DHT22;9817;50.80926400;5.16316200;2023-03-03T05:22:49;1.60;99.90
19363;DHT22;9817;50.80926400;5.16316200;2023-03-03T05:25:15;1.70;99.90
19363;DHT22;9817;50.80926400;5.16316200;2023-03-03T05:27:41;1.70;99.90
19363;DHT22;9817;50.80926400;5.16316200;2023-03-03T05:30:08;1.70;99.90
19363;DHT22;9817;50.80926400;5.16316200;2023-03-03T05:32:34;1.80;99.90
19363;DHT22;9817;50.80926400;5.16316200;2023-03-03T05:35:00;1.80;99.90
19363;DHT22;9817;50.80926400;5.16316200;2023-03-03T05:37:26;1.70;99.90
19363;DHT22;9817;50.80926400;5.16316200;2023-03-03T05:39:51;1.80;99.90
19363;DHT22;9817;50.80926400;5.16316200;2023-03-03T05:42:17;1.70;99.90
19363;DHT22;9817;50.80926400;5.16316200;2023-03-03T05:44:43;1.70;99.90
19363;DHT22;9817;50.80926400;5.16316200;2023-03-03T05:47:09;1.70;99.90
19363;DHT22;9817;50.80926400;5.16316200;2023-03-03T05:49:34;1.90;99.90
19363;DHT22;9817;50.80926400;5.16316200;2023-03-03T05:52:00;1.90;99.90
19363;DHT22;9817;50.80926400;5.16316200;2023-03-03T05:54:25;1.80;99.90
19363;DHT22;9817;50.80926400;5.16316200;2023-03-03T05:56:51;1.80;99.90
19363;DHT22;9817;50.80926400;5.16316200;2023-03-03T05:59:17;1.60;99.90
19363;DHT22;9817;50.80926400;5.16316200;2023-03-03T06:01:43;1.60;99.90
19363;DHT22;9817;50.80926400;5.16316200;2023-03-03T06:04:09;1.70;99.90
19363;DHT22;9817;50.80926400;5.16316200;2023-03-03T06:06:34;1.60;99.90
19363;DHT22;9817;50.80926400;5.16316200;2023-03-03T06:09:00;1.60;99.90
19363;DHT22;9817;50.80926400;5.16316200;2023-03-03T06:11:26;1.60;99.90
19363;DHT22;9817;50.80926400;5.16316200;2023-03-03T06:13:52;1.60;99.90
19363;DHT22;9817;50.80926400;5.16316200;2023-03-03T06:16:18;1.60;99.90
19363;DHT22;9817;50.80926400;5.16316200;2023-03-03T06:18:43;1.60;99.90
19363;DHT22;9817;50.80926400;5.16316200;2023-03-03T06:21:09;1.60;99.90
19363;DHT22;9817;50.80926400;5.16316200;2023-03-03T06:23:35;1.50;99.90
19363;DHT22;9817;50.80926400;5.16316200;2023-03-03T06:26:00;1.60;99.90
19363;DHT22;9817;50.80926400;5.16316200;2023-03-03T06:28:26;1.50;99.90
19363;DHT22;9817;50.80926400;5.16316200;2023-03-03T06:30:53;1.50;99.90
19363;DHT22;9817;50.80926400;5.16316200;2023-03-03T06:33:19;1.50;99.90
19363;DHT22;9817;50.80926400;5.16316200;2023-03-03T06:35:49;1.50;99.90
19363;DHT22;9817;50.80926400;5.16316200;2023-03-03T06:38:14;1.50;99.90
19363;DHT22;9817;50.80926400;5.16316200;2023-03-03T06:40:40;1.50;99.90
19363;DHT22;9817;50.80926400;5.16316200;2023-03-03T06:43:06;1.50;99.90
19363;DHT22;9817;50.80926400;5.16316200;2023-03-03T06:45:31;1.50;99.90
19363;DHT22;9817;50.80926400;5.16316200;2023-03-03T06:47:57;1.70;99.90
19363;DHT22;9817;50.80926400;5.16316200;2023-03-03T06:50:22;1.70;99.90
19363;DHT22;9817;50.80926400;5.16316200;2023-03-03T06:52:48;1.80;99.90
19363;DHT22;9817;50.80926400;5.16316200;2023-03-03T06:55:22;1.80;99.90
19363;DHT22;9817;50.80926400;5.16316200;2023-03-03T06:57:47;1.70;99.90
19363;DHT22;9817;50.80926400;5.16316200;2023-03-03T07:00:25;1.80;99.90
19363;DHT22;9817;50.80926400;5.16316200;2023-03-03T07:03:06;1.90;99.90
19363;DHT22;9817;50.80926400;5.16316200;2023-03-03T07:05:32;1.90;99.90
19363;DHT22;9817;50.80926400;5.16316200;2023-03-03T07:07:58;1.70;99.90
19363;DHT22;9817;50.80926400;5.16316200;2023-03-03T07:10:26;1.70;99.90
19363;DHT22;9817;50.80926400;5.16316200;2023-03-03T07:12:53;1.60;99.90
19363;DHT22;9817;50.80926400;5.16316200;2023-03-03T07:15:27;1.50;99.90
19363;DHT22;9817;50.80926400;5.16316200;2023-03-03T07:17:55;1.60;99.90
19363;DHT22;9817;50.80926400;5.16316200;2023-03-03T07:20:34;1.50;99.90
19363;DHT22;9817;50.80926400;5.16316200;2023-03-03T07:23:08;1.50;99.90
19363;DHT22;9817;50.80926400;5.16316200;2023-03-03T07:25:34;1.70;99.90
19363;DHT22;9817;50.80926400;5.16316200;2023-03-03T07:28:27;1.60;99.90
19363;DHT22;9817;50.80926400;5.16316200;2023-03-03T07:30:53;1.50;99.90
19363;DHT22;9817;50.80926400;5.16316200;2023-03-03T07:33:26;1.50;99.90
19363;DHT22;9817;50.80926400;5.16316200;2023-03-03T07:35:54;1.60;99.90
19363;DHT22;9817;50.80926400;5.16316200;2023-03-03T07:38:36;1.70;99.90
19363;DHT22;9817;50.80926400;5.16316200;2023-03-03T07:41:09;1.70;99.90
19363;DHT22;9817;50.80926400;5.16316200;2023-03-03T07:43:37;1.60;99.90
19363;DHT22;9817;50.80926400;5.16316200;2023-03-03T07:46:36;1.70;99.90
19363;DHT22;9817;50.80926400;5.16316200;2023-03-03T07:49:23;1.90;99.90
19363;DHT22;9817;50.80926400;5.16316200;2023-03-03T07:51:53;1.90;99.90
19363;DHT22;9817;50.80926400;5.16316200;2023-03-03T07:54:35;1.80;99.90
19363;DHT22;9817;50.80926400;5.16316200;2023-03-03T07:57:14;1.60;99.90
19363;DHT22;9817;50.80926400;5.16316200;2023-03-03T08:04:48;1.70;99.90
19363;DHT22;9817;50.80926400;5.16316200;2023-03-03T08:07:18;1.60;99.90
19363;DHT22;9817;50.80926400;5.16316200;2023-03-03T08:09:50;1.50;99.90
19363;DHT22;9817;50.80926400;5.16316200;2023-03-03T08:13:00;1.50;99.90
19363;DHT22;9817;50.80926400;5.16316200;2023-03-03T08:15:26;1.60;99.90
19363;DHT22;9817;50.80926400;5.16316200;2023-03-03T08:17:53;1.80;99.90
19363;DHT22;9817;50.80926400;5.16316200;2023-03-03T08:20:49;1.90;99.90
19363;DHT22;9817;50.80926400;5.16316200;2023-03-03T08:23:17;1.70;99.90
19363;DHT22;9817;50.80926400;5.16316200;2023-03-03T08:25:43;1.80;99.90
19363;DHT22;9817;50.80926400;5.16316200;2023-03-03T08:28:09;1.80;99.90
19363;DHT22;9817;50.80926400;5.16316200;2023-03-03T08:30:35;1.80;99.90
19363;DHT22;9817;50.80926400;5.16316200;2023-03-03T08:33:01;1.90;99.90
19363;DHT22;9817;50.80926400;5.16316200;2023-03-03T08:35:27;1.80;99.90
19363;DHT22;9817;50.80926400;5.16316200;2023-03-03T08:37:53;1.80;99.90
19363;DHT22;9817;50.80926400;5.16316200;2023-03-03T08:40:18;1.80;99.90
19363;DHT22;9817;50.80926400;5.16316200;2023-03-03T08:42:44;1.90;99.90
19363;DHT22;9817;50.80926400;5.16316200;2023-03-03T08:45:10;2.00;99.90
19363;DHT22;9817;50.80926400;5.16316200;2023-03-03T08:47:35;2.20;99.90
19363;DHT22;9817;50.80926400;5.16316200;2023-03-03T08:50:01;2.20;99.90
19363;DHT22;9817;50.80926400;5.16316200;2023-03-03T08:52:26;2.20;99.90
19363;DHT22;9817;50.80926400;5.16316200;2023-03-03T08:54:52;1.80;99.90
19363;DHT22;9817;50.80926400;5.16316200;2023-03-03T08:57:18;1.70;99.90
19363;DHT22;9817;50.80926400;5.16316200;2023-03-03T08:59:44;1.90;99.90
19363;DHT22;9817;50.80926400;5.16316200;2023-03-03T09:02:12;2.00;99.90
19363;DHT22;9817;50.80926400;5.16316200;2023-03-03T09:04:37;2.00;99.90
19363;DHT22;9817;50.80926400;5.16316200;2023-03-03T09:07:03;1.90;99.90
19363;DHT22;9817;50.80926400;5.16316200;2023-03-03T09:09:28;2.00;99.90
19363;DHT22;9817;50.80926400;5.16316200;2023-03-03T09:12:02;2.10;99.90
19363;DHT22;9817;50.80926400;5.16316200;2023-03-03T09:14:30;2.20;99.90
19363;DHT22;9817;50.80926400;5.16316200;2023-03-03T09:16:56;2.20;99.90
19363;DHT22;9817;50.80926400;5.16316200;2023-03-03T09:19:29;2.40;99.90
19363;DHT22;9817;50.80926400;5.16316200;2023-03-03T09:21:58;2.50;99.90
19363;DHT22;9817;50.80926400;5.16316200;2023-03-03T09:24:28;2.60;99.90
19363;DHT22;9817;50.80926400;5.16316200;2023-03-03T09:26:55;2.70;99.90
19363;DHT22;9817;50.80926400;5.16316200;2023-03-03T09:29:30;2.90;99.90
19363;DHT22;9817;50.80926400;5.16316200;2023-03-03T09:32:16;2.80;99.90
19363;DHT22;9817;50.80926400;5.16316200;2023-03-03T09:34:45;2.70;99.90
19363;DHT22;9817;50.80926400;5.16316200;2023-03-03T09:37:23;2.50;99.90
19363;DHT22;9817;50.80926400;5.16316200;2023-03-03T09:39:53;2.40;99.90
19363;DHT22;9817;50.80926400;5.16316200;2023-03-03T09:45:25;2.40;99.90
19363;DHT22;9817;50.80926400;5.16316200;2023-03-03T09:53:38;2.40;99.90
19363;DHT22;9817;50.80926400;5.16316200;2023-03-03T10:12:42;2.80;99.90
19363;DHT22;9817;50.80926400;5.16316200;2023-03-03T10:31:47;3.30;99.90
19363;DHT22;9817;50.80926400;5.16316200;2023-03-03T10:34:45;3.20;99.90
19363;DHT22;9817;50.80926400;5.16316200;2023-03-03T10:37:55;3.40;99.90
19363;DHT22;9817;50.80926400;5.16316200;2023-03-03T10:43:12;3.90;99.90
19363;DHT22;9817;50.80926400;5.16316200;2023-03-03T10:51:36;4.20;99.90
19363;DHT22;9817;50.80926400;5.16316200;2023-03-03T10:56:54;3.80;99.90
19363;DHT22;9817;50.80926400;5.16316200;2023-03-03T11:02:37;4.00;99.90
19363;DHT22;9817;50.80926400;5.16316200;2023-03-03T11:07:55;4.00;99.90
19363;DHT22;9817;50.80926400;5.16316200;2023-03-03T11:19:07;3.60;99.90
19363;DHT22;9817;50.80926400;5.16316200;2023-03-03T11:27:17;4.10;99.90
19363;DHT22;9817;50.80926400;5.16316200;2023-03-03T11:40:26;4.80;99.90
19363;DHT22;9817;50.80926400;5.16316200;2023-03-03T11:42:58;5.00;99.90
19363;DHT22;9817;50.80926400;5.16316200;2023-03-03T11:45:41;5.20;99.90
19363;DHT22;9817;50.80926400;5.16316200;2023-03-03T11:51:07;5.50;99.90
19363;DHT22;9817;50.80926400;5.16316200;2023-03-03T11:53:58;5.70;99.90
19363;DHT22;9817;50.80926400;5.16316200;2023-03-03T11:56:40;5.50;99.90
19363;DHT22;9817;50.80926400;5.16316200;2023-03-03T11:59:35;5.50;99.90
19363;DHT22;9817;50.80926400;5.16316200;2023-03-03T12:04:51;5.60;99.90
19363;DHT22;9817;50.80926400;5.16316200;2023-03-03T12:07:24;5.50;99.90
19363;DHT22;9817;50.80926400;5.16316200;2023-03-03T12:10:31;5.50;99.90
19363;DHT22;9817;50.80926400;5.16316200;2023-03-03T12:13:05;5.50;99.90
19363;DHT22;9817;50.80926400;5.16316200;2023-03-03T12:26:19;5.50;99.90
19363;DHT22;9817;50.80926400;5.16316200;2023-03-03T12:28:58;5.40;99.90
19363;DHT22;9817;50.80926400;5.16316200;2023-03-03T12:32:26;5.40;99.90
19363;DHT22;9817;50.80926400;5.16316200;2023-03-03T12:37:40;5.60;99.90
19363;DHT22;9817;50.80926400;5.16316200;2023-03-03T12:40:20;5.50;99.90
19363;DHT22;9817;50.80926400;5.16316200;2023-03-03T12:48:52;5.60;99.90
19363;DHT22;9817;50.80926400;5.16316200;2023-03-03T12:54:01;5.50;99.90
19363;DHT22;9817;50.80926400;5.16316200;2023-03-03T13:07:44;5.90;99.90
19363;DHT22;9817;50.80926400;5.16316200;2023-03-03T13:10:27;6.10;99.90
19363;DHT22;9817;50.80926400;5.16316200;2023-03-03T13:15:47;6.60;99.90
19363;DHT22;9817;50.80926400;5.16316200;2023-03-03T13:21:23;6.20;99.90
19363;DHT22;9817;50.80926400;5.16316200;2023-03-03T13:27:04;6.30;99.90
19363;DHT22;9817;50.80926400;5.16316200;2023-03-03T13:29:41;6.30;99.90
19363;DHT22;9817;50.80926400;5.16316200;2023-03-03T13:32:26;6.50;99.90
19363;DHT22;9817;50.80926400;5.16316200;2023-03-03T13:35:04;6.70;99.90
19363;DHT22;9817;50.80926400;5.16316200;2023-03-03T13:37:38;7.00;99.90
19363;DHT22;9817;50.80926400;5.16316200;2023-03-03T13:45:46;6.60;99.90
19363;DHT22;9817;50.80926400;5.16316200;2023-03-03T13:57:03;6.60;99.90
19363;DHT22;9817;50.80926400;5.16316200;2023-03-03T13:59:52;6.90;99.90
19363;DHT22;9817;50.80926400;5.16316200;2023-03-03T14:05:15;6.90;99.90
19363;DHT22;9817;50.80926400;5.16316200;2023-03-03T14:08:02;6.90;99.90
19363;DHT22;9817;50.80926400;5.16316200;2023-03-03T14:10:33;7.10;99.90
19363;DHT22;9817;50.80926400;5.16316200;2023-03-03T14:13:07;7.20;99.90
19363;DHT22;9817;50.80926400;5.16316200;2023-03-03T14:16:08;7.20;99.90
19363;DHT22;9817;50.80926400;5.16316200;2023-03-03T14:21:29;7.40;99.90
19363;DHT22;9817;50.80926400;5.16316200;2023-03-03T14:24:04;7.20;99.90
19363;DHT22;9817;50.80926400;5.16316200;2023-03-03T14:26:47;7.30;99.90
19363;DHT22;9817;50.80926400;5.16316200;2023-03-03T14:29:21;7.40;99.90
19363;DHT22;9817;50.80926400;5.16316200;2023-03-03T14:31:54;7.50;99.90
19363;DHT22;9817;50.80926400;5.16316200;2023-03-03T14:36:57;7.50;99.90
19363;DHT22;9817;50.80926400;5.16316200;2023-03-03T14:39:27;7.60;99.90
19363;DHT22;9817;50.80926400;5.16316200;2023-03-03T14:41:55;7.20;99.90
19363;DHT22;9817;50.80926400;5.16316200;2023-03-03T14:44:29;7.10;99.90
19363;DHT22;9817;50.80926400;5.16316200;2023-03-03T14:47:18;7.20;99.90
19363;DHT22;9817;50.80926400;5.16316200;2023-03-03T14:49:44;7.30;99.90
19363;DHT22;9817;50.80926400;5.16316200;2023-03-03T14:52:19;7.50;99.90
19363;DHT22;9817;50.80926400;5.16316200;2023-03-03T14:54:51;7.40;99.90
19363;DHT22;9817;50.80926400;5.16316200;2023-03-03T15:02:37;7.20;99.90
19363;DHT22;9817;50.80926400;5.16316200;2023-03-03T15:05:19;7.50;99.90
19363;DHT22;9817;50.80926400;5.16316200;2023-03-03T15:07:48;7.30;99.90
19363;DHT22;9817;50.80926400;5.16316200;2023-03-03T15:10:46;7.40;99.90
19363;DHT22;9817;50.80926400;5.16316200;2023-03-03T15:18:17;7.30;99.90
19363;DHT22;9817;50.80926400;5.16316200;2023-03-03T15:21:02;7.30;99.90
19363;DHT22;9817;50.80926400;5.16316200;2023-03-03T15:29:16;7.20;99.90
19363;DHT22;9817;50.80926400;5.16316200;2023-03-03T15:31:58;7.40;99.90
19363;DHT22;9817;50.80926400;5.16316200;2023-03-03T15:34:32;7.30;99.90
19363;DHT22;9817;50.80926400;5.16316200;2023-03-03T15:37:14;7.50;99.90
19363;DHT22;9817;50.80926400;5.16316200;2023-03-03T15:42:45;7.70;99.90
19363;DHT22;9817;50.80926400;5.16316200;2023-03-03T15:45:31;7.60;99.90
19363;DHT22;9817;50.80926400;5.16316200;2023-03-03T15:56:31;7.50;99.90
19363;DHT22;9817;50.80926400;5.16316200;2023-03-03T16:02:18;7.50;99.90
19363;DHT22;9817;50.80926400;5.16316200;2023-03-03T16:05:12;7.40;99.90
19363;DHT22;9817;50.80926400;5.16316200;2023-03-03T16:07:50;7.10;99.90
19363;DHT22;9817;50.80926400;5.16316200;2023-03-03T16:10:33;7.10;99.90
19363;DHT22;9817;50.80926400;5.16316200;2023-03-03T16:13:29;7.10;99.90
19363;DHT22;9817;50.80926400;5.16316200;2023-03-03T16:19:13;7.30;99.90
19363;DHT22;9817;50.80926400;5.16316200;2023-03-03T16:27:46;7.30;99.90
19363;DHT22;9817;50.80926400;5.16316200;2023-03-03T16:30:33;7.30;99.90
19363;DHT22;9817;50.80926400;5.16316200;2023-03-03T16:33:13;7.30;99.90
19363;DHT22;9817;50.80926400;5.16316200;2023-03-03T16:35:47;7.40;99.90
19363;DHT22;9817;50.80926400;5.16316200;2023-03-03T16:40:55;7.60;99.90
19363;DHT22;9817;50.80926400;5.16316200;2023-03-03T16:45:50;7.40;99.90
19363;DHT22;9817;50.80926400;5.16316200;2023-03-03T16:48:32;7.30;99.90
19363;DHT22;9817;50.80926400;5.16316200;2023-03-03T16:51:08;7.10;99.90
19363;DHT22;9817;50.80926400;5.16316200;2023-03-03T16:59:06;6.80;99.90
19363;DHT22;9817;50.80926400;5.16316200;2023-03-03T17:01:49;6.80;99.90
19363;DHT22;9817;50.80926400;5.16316200;2023-03-03T17:04:33;6.80;99.90
19363;DHT22;9817;50.80926400;5.16316200;2023-03-03T17:36:58;6.00;99.90
19363;DHT22;9817;50.80926400;5.16316200;2023-03-03T17:42:42;5.90;99.90
19363;DHT22;9817;50.80926400;5.16316200;2023-03-03T17:45:13;5.90;99.90
19363;DHT22;9817;50.80926400;5.16316200;2023-03-03T17:53:26;5.90;99.90
19363;DHT22;9817;50.80926400;5.16316200;2023-03-03T17:56:00;5.60;99.90
19363;DHT22;9817;50.80926400;5.16316200;2023-03-03T18:04:06;5.30;99.90
19363;DHT22;9817;50.80926400;5.16316200;2023-03-03T18:15:27;5.20;99.90
19363;DHT22;9817;50.80926400;5.16316200;2023-03-03T18:18:38;5.10;99.90
19363;DHT22;9817;50.80926400;5.16316200;2023-03-03T18:21:03;5.10;99.90
19363;DHT22;9817;50.80926400;5.16316200;2023-03-03T18:23:32;5.30;99.90
19363;DHT22;9817;50.80926400;5.16316200;2023-03-03T18:26:49;5.20;99.90
19363;DHT22;9817;50.80926400;5.16316200;2023-03-03T18:28:50;5.00;99.90
19363;DHT22;9817;50.80926400;5.16316200;2023-03-03T18:31:24;4.90;99.90
19363;DHT22;9817;50.80926400;5.16316200;2023-03-03T18:34:02;5.00;99.90
19363;DHT22;9817;50.80926400;5.16316200;2023-03-03T18:38:59;4.80;99.90
19363;DHT22;9817;50.80926400;5.16316200;2023-03-03T18:44:30;4.60;99.90
19363;DHT22;9817;50.80926400;5.16316200;2023-03-03T18:46:56;4.60;99.90
19363;DHT22;9817;50.80926400;5.16316200;2023-03-03T18:50:03;4.50;99.90
19363;DHT22;9817;50.80926400;5.16316200;2023-03-03T18:52:31;4.60;99.90